Time;durP1;ratioP1;P1;durP2;ratioP2;P2;SDS_P1;SDS_P2;PMS_P1;PMS_P2;Temp;Humidity;BMP_temperature;BMP_pressure;BME280_temperature;BME280_humidity;BME280_pressure;Samples;Min_cycle;Max_cycle;Signal;HPM_P1;HPM_P2
2022/12/07 00:03:31;;;;;;;22.03;10.83;;;3.80;99.90;;;1.51;100.00;99999.84;10607183;27;20066;-78
2022/12/07 00:08:35;;;;;;;17.53;9.40;;;3.90;99.90;;;1.53;100.00;99995.31;10572623;27;20054;-78
2022/12/07 00:13:38;;;;;;;15.47;8.37;;;3.90;99.90;;;1.51;100.00;99984.13;10569481;28;20060;-78
2022/12/07 00:18:42;;;;;;;11.67;6.43;;;3.90;99.90;;;1.46;100.00;99978.41;10578475;27;20064;-78
2022/12/07 00:23:47;;;;;;;14.93;6.50;;;3.80;99.90;;;1.48;100.00;99971.25;10578248;27;20094;-78
2022/12/07 00:28:55;;;;;;;9.67;5.83;;;3.80;99.90;;;1.46;100.00;99975.78;10591526;27;20098;-78
2022/12/07 00:33:58;;;;;;;13.40;6.53;;;3.80;99.90;;;1.38;100.00;99970.25;10600864;27;20064;-78
2022/12/07 00:39:02;;;;;;;10.03;5.70;;;3.70;99.90;;;1.25;100.00;99965.94;10582330;27;20412;-78
2022/12/07 00:44:05;;;;;;;10.13;4.77;;;3.60;99.90;;;1.10;100.00;99969.72;10591030;27;20055;-78
2022/12/07 00:49:08;;;;;;;10.53;5.57;;;3.50;99.90;;;0.96;100.00;99973.34;10621920;27;20527;-78
2022/12/07 00:54:11;;;;;;;10.47;5.87;;;3.40;99.90;;;0.87;100.00;99967.94;10574100;27;20052;-78
2022/12/07 00:59:14;;;;;;;10.73;5.60;;;3.30;99.90;;;0.78;100.00;99980.75;10621274;27;20067;-78
2022/12/07 01:04:17;;;;;;;13.00;6.00;;;3.20;99.90;;;0.72;100.00;99968.13;10607627;27;20154;-78
2022/12/07 01:09:20;;;;;;;13.07;6.40;;;3.20;99.90;;;0.63;100.00;99968.78;10603137;27;20063;-78
2022/12/07 01:14:23;;;;;;;11.83;5.87;;;3.10;99.90;;;0.61;100.00;99967.22;10596458;27;20104;-77
2022/12/07 01:19:26;;;;;;;12.13;5.80;;;3.00;99.90;;;0.59;100.00;99959.47;10645827;27;20051;-78
2022/12/07 01:24:29;;;;;;;12.30;6.43;;;3.00;99.90;;;0.53;100.00;99957.28;10615435;27;20534;-78
2022/12/07 01:29:32;;;;;;;11.47;6.07;;;3.00;99.90;;;0.46;100.00;99949.06;10639015;27;20060;-78
2022/12/07 01:34:35;;;;;;;14.20;6.40;;;2.90;99.90;;;0.41;100.00;99950.31;10576040;27;20469;-78
2022/12/07 01:39:38;;;;;;;13.07;6.27;;;2.80;99.90;;;0.47;100.00;99955.13;10630833;27;20062;-78
2022/12/07 01:45:18;;;;;;;10.27;5.90;;;2.80;99.90;;;0.56;100.00;99953.63;10616024;27;20060;-78
2022/12/07 01:50:24;;;;;;;10.30;5.10;;;2.90;99.90;;;0.71;100.00;99955.13;10610654;27;20059;-78
2022/12/07 01:55:27;;;;;;;9.03;4.90;;;3.10;99.90;;;1.00;100.00;99950.41;10596542;27;20087;-78
2022/12/07 02:00:30;;;;;;;5.47;3.83;;;3.30;99.90;;;1.27;100.00;99945.75;10603055;27;20090;-77
2022/12/07 02:05:36;;;;;;;7.63;3.83;;;3.60;99.90;;;1.49;100.00;99941.50;10610424;27;20067;-77
2022/12/07 02:10:40;;;;;;;12.03;5.67;;;3.80;99.90;;;1.56;100.00;99945.31;10610610;27;20546;-77
2022/12/07 02:16:19;;;;;;;10.83;4.70;;;4.00;99.90;;;1.53;100.00;99951.63;10626371;27;20877;-77
2022/12/07 02:21:29;;;;;;;8.90;5.00;;;4.00;99.90;;;1.50;100.00;99945.78;10598081;27;20059;-78
2022/12/07 02:27:01;;;;;;;8.83;4.73;;;3.90;99.90;;;1.50;100.00;99935.31;10594908;27;20060;-77
2022/12/07 02:32:38;;;;;;;7.53;3.90;;;3.90;99.90;;;1.54;100.00;99940.19;10603617;27;20047;-77
2022/12/07 02:38:02;;;;;;;7.50;4.03;;;3.90;99.90;;;1.63;100.00;99927.38;10559243;28;20093;-77
2022/12/07 02:43:25;;;;;;;8.57;4.43;;;4.00;99.90;;;1.80;100.00;99927.75;10644132;27;20063;-78
2022/12/07 02:48:28;;;;;;;7.03;4.27;;;4.20;99.90;;;1.96;100.00;99929.16;10582209;27;20056;-77
2022/12/07 02:53:37;;;;;;;8.27;4.60;;;4.30;99.90;;;2.04;100.00;99926.75;10576774;27;20071;-78
2022/12/07 02:59:21;;;;;;;7.50;4.30;;;4.40;99.90;;;2.12;100.00;99927.00;10586743;27;20064;-78
2022/12/07 03:04:34;;;;;;;5.63;3.43;;;4.50;99.90;;;2.19;100.00;99930.81;10620761;27;20087;-78
2022/12/07 03:09:53;;;;;;;7.07;3.83;;;4.60;99.90;;;2.22;100.00;99933.22;10604120;27;20059;-78
2022/12/07 03:15:35;;;;;;;5.43;3.50;;;4.60;99.90;;;2.23;100.00;99929.63;10595523;27;20059;-78
2022/12/07 03:20:42;;;;;;;8.10;4.45;;;4.60;99.90;;;2.25;100.00;99919.00;10558508;27;20062;-78
2022/12/07 03:25:54;;;;;;;9.20;5.03;;;4.60;99.90;;;2.23;100.00;99923.56;10583272;27;20055;-78
2022/12/07 03:31:14;;;;;;;7.47;4.90;;;4.60;99.90;;;2.22;100.00;99935.84;10574308;27;20047;-78
2022/12/07 03:36:35;;;;;;;9.70;5.43;;;4.50;99.90;;;2.21;100.00;99935.94;10583499;27;20060;-78
2022/12/07 03:41:39;;;;;;;11.97;4.80;;;4.50;99.90;;;2.18;100.00;99939.63;10589026;27;20250;-78
2022/12/07 03:47:10;;;;;;;9.63;5.63;;;4.50;99.90;;;2.16;100.00;99944.19;10578931;27;20060;-78
2022/12/07 03:53:04;;;;;;;9.90;5.23;;;4.40;99.90;;;2.14;100.00;99943.44;10596737;27;20060;-78
2022/12/07 03:58:16;;;;;;;8.07;4.80;;;4.40;99.90;;;2.10;100.00;99935.00;10569925;27;20051;-78
2022/12/07 04:03:19;;;;;;;7.97;4.50;;;4.40;99.90;;;2.07;100.00;99930.00;10580178;27;20063;-78
2022/12/07 04:08:22;;;;;;;5.63;3.40;;;4.40;99.90;;;2.01;100.00;99942.75;10566985;27;20056;-78
2022/12/07 04:13:25;;;;;;;4.90;3.20;;;4.30;99.90;;;1.94;100.00;99933.69;10603218;27;20055;-77
2022/12/07 04:18:28;;;;;;;10.57;3.53;;;4.20;99.90;;;1.87;100.00;99936.78;10611388;27;20056;-77
2022/12/07 04:23:31;;;;;;;6.37;3.33;;;4.20;99.90;;;1.86;100.00;99942.16;10599095;27;20059;-77
2022/12/07 04:28:34;;;;;;;6.67;3.87;;;4.20;99.90;;;1.85;100.00;99929.97;10591234;27;20063;-78
2022/12/07 04:33:37;;;;;;;8.67;4.20;;;4.20;99.90;;;1.86;100.00;99936.91;10640377;27;20169;-77
2022/12/07 04:38:40;;;;;;;7.60;4.43;;;4.20;99.90;;;1.86;100.00;99931.69;10615058;27;20056;-77
2022/12/07 04:43:43;;;;;;;8.20;3.97;;;4.20;99.90;;;1.87;100.00;99928.94;10589407;27;20060;-77
2022/12/07 04:48:46;;;;;;;8.77;4.83;;;4.20;99.90;;;1.86;100.00;99915.97;10608924;27;20534;-77
2022/12/07 04:53:49;;;;;;;6.90;4.40;;;4.20;99.90;;;1.86;100.00;99919.41;10590319;27;20063;-78
2022/12/07 04:58:54;;;;;;;8.50;4.83;;;4.20;99.90;;;1.84;100.00;99917.84;10597332;27;20132;-77
2022/12/07 05:03:57;;;;;;;8.80;5.03;;;4.10;99.90;;;1.80;100.00;99914.66;10572794;27;20090;-77
2022/12/07 05:09:02;;;;;;;9.53;4.53;;;4.10;99.90;;;1.78;100.00;99918.31;10632789;27;20060;-78
2022/12/07 05:14:18;;;;;;;8.33;4.73;;;4.10;99.90;;;1.75;100.00;99908.09;10571837;28;20056;-77
2022/12/07 05:19:22;;;;;;;9.37;5.20;;;4.00;99.90;;;1.73;100.00;99923.06;10592222;27;20087;-77
2022/12/07 05:24:24;;;;;;;9.50;5.40;;;4.00;99.90;;;1.71;100.00;99923.19;10623424;27;20052;-77
2022/12/07 05:29:27;;;;;;;9.73;4.83;;;4.00;99.90;;;1.70;100.00;99918.09;10570920;28;20056;-77
2022/12/07 05:34:30;;;;;;;10.53;5.60;;;4.00;99.90;;;1.71;100.00;99917.97;10599440;27;20144;-77
2022/12/07 05:39:33;;;;;;;8.57;4.10;;;4.00;99.90;;;1.73;100.00;99916.03;10584317;28;20075;-77
2022/12/07 05:44:36;;;;;;;8.43;5.07;;;4.00;99.90;;;1.79;100.00;99922.59;10558077;28;20067;-77
2022/12/07 05:49:39;;;;;;;11.00;5.50;;;4.10;99.90;;;1.83;100.00;99922.25;10597305;27;20074;-77
2022/12/07 05:54:42;;;;;;;10.23;5.63;;;4.10;99.90;;;1.89;100.00;99920.94;10580515;27;20135;-77
2022/12/07 05:59:45;;;;;;;12.57;5.70;;;4.10;99.90;;;1.95;100.00;99925.72;10603071;27;20055;-78
2022/12/07 06:04:48;;;;;;;10.35;6.35;;;4.20;99.90;;;1.98;100.00;99930.72;10610404;27;20059;-78
2022/12/07 06:09:52;;;;;;;13.97;6.47;;;4.20;99.90;;;2.03;100.00;99933.78;10595939;27;20345;-78
2022/12/07 06:14:55;;;;;;;10.50;6.23;;;4.20;99.90;;;2.05;100.00;99931.06;10630736;27;20527;-78
2022/12/07 06:19:58;;;;;;;12.77;6.87;;;4.30;99.90;;;2.07;100.00;99923.91;10585874;27;20055;-78
2022/12/07 06:25:03;;;;;;;16.83;8.20;;;4.30;99.90;;;2.10;100.00;99935.00;10584022;27;20055;-78
2022/12/07 06:30:11;;;;;;;14.83;6.97;;;4.30;99.90;;;2.13;100.00;99933.91;10592041;27;20458;-77
2022/12/07 06:35:14;;;;;;;14.47;7.07;;;4.40;99.90;;;2.16;100.00;99938.94;10598788;27;20056;-76
2022/12/07 06:40:16;;;;;;;14.57;8.03;;;4.40;99.90;;;2.17;100.00;99937.97;10615738;27;20071;-78
2022/12/07 06:45:19;;;;;;;14.33;7.23;;;4.40;99.90;;;2.19;100.00;99943.94;10576143;27;20051;-84
2022/12/07 06:50:22;;;;;;;16.30;8.60;;;4.40;99.90;;;2.22;100.00;99942.84;10585500;27;20401;-83
2022/12/07 06:55:25;;;;;;;17.00;9.03;;;4.50;99.90;;;2.24;100.00;99939.16;10579321;27;20063;-82
2022/12/07 07:00:29;;;;;;;17.50;9.37;;;4.50;99.90;;;2.28;100.00;99935.34;10589370;27;20523;-82
2022/12/07 07:05:32;;;;;;;19.43;10.07;;;4.50;99.90;;;2.34;100.00;99932.25;10592760;27;20097;-81
2022/12/07 07:10:36;;;;;;;17.97;9.17;;;4.50;99.90;;;2.38;100.00;99928.41;10623239;27;20056;-80
2022/12/07 07:15:39;;;;;;;16.37;8.63;;;4.60;99.90;;;2.43;100.00;99933.28;10576205;27;20155;-80
2022/12/07 07:20:42;;;;;;;17.43;9.80;;;4.70;99.90;;;2.48;100.00;99938.16;10569209;27;20139;-79
2022/12/07 07:25:46;;;;;;;14.63;8.80;;;4.70;99.90;;;2.51;100.00;99937.91;10609573;27;20048;-78
2022/12/07 07:30:49;;;;;;;19.30;10.53;;;4.70;99.90;;;2.55;100.00;99934.91;10590051;27;20059;-79
2022/12/07 07:35:53;;;;;;;17.20;9.27;;;4.80;99.90;;;2.61;100.00;99941.47;10596359;27;20051;-78
2022/12/07 07:40:56;;;;;;;14.47;8.13;;;4.90;99.90;;;2.67;100.00;99935.72;10605181;27;20559;-81
2022/12/07 07:45:59;;;;;;;16.67;8.10;;;4.90;99.90;;;2.74;100.00;99936.91;10592324;27;20525;-79
2022/12/07 07:51:06;;;;;;;19.20;9.83;;;5.00;99.90;;;2.82;100.00;99942.38;10607326;27;20218;-81
2022/12/07 07:56:10;;;;;;;18.83;10.23;;;5.10;99.90;;;2.85;100.00;99947.34;10626551;27;20091;-78
2022/12/07 08:01:13;;;;;;;17.20;8.63;;;5.10;99.90;;;2.90;100.00;99949.63;10583206;27;20055;-80
2022/12/07 08:06:16;;;;;;;16.90;9.00;;;5.20;99.90;;;2.97;100.00;99945.53;10597565;27;20059;-81
2022/12/07 08:11:19;;;;;;;16.37;9.57;;;5.20;99.90;;;3.01;100.00;99946.94;10609882;27;20051;-79
2022/12/07 08:16:22;;;;;;;16.07;8.60;;;5.30;99.90;;;3.10;100.00;99948.81;10593199;27;20081;-79
2022/12/07 08:21:25;;;;;;;15.27;9.00;;;5.30;99.90;;;3.14;100.00;99950.22;10584464;27;20504;-78
2022/12/07 08:26:28;;;;;;;24.27;11.43;;;5.30;99.90;;;3.21;100.00;99958.44;10598770;27;20048;-82
2022/12/07 08:31:31;;;;;;;21.30;12.30;;;5.40;99.90;;;3.27;100.00;99960.56;10585666;27;20056;-77
2022/12/07 08:36:36;;;;;;;19.90;11.20;;;5.40;99.90;;;3.28;100.00;99977.13;10628008;27;20132;-78
2022/12/07 08:41:39;;;;;;;17.00;9.20;;;5.50;99.90;;;3.26;100.00;99976.44;10598500;27;20060;-78
2022/12/07 08:46:53;;;;;;;18.57;9.57;;;5.40;99.90;;;3.27;100.00;99980.72;10590781;27;20060;-79
2022/12/07 08:51:56;;;;;;;13.80;8.67;;;5.40;99.90;;;3.32;100.00;99973.31;10558961;28;20052;-78
2022/12/07 08:57:00;;;;;;;16.43;9.53;;;5.50;99.90;;;3.42;100.00;99977.69;10585847;27;20146;-79
2022/12/07 09:02:04;;;;;;;15.67;8.93;;;5.60;99.90;;;3.57;100.00;99978.19;10612174;27;20055;-78
2022/12/07 09:07:07;;;;;;;14.07;8.07;;;5.70;99.90;;;3.68;100.00;99974.66;10606948;27;20067;-79
2022/12/07 09:12:11;;;;;;;12.10;7.83;;;5.90;99.90;;;3.79;100.00;99979.84;10605161;27;20070;-81
2022/12/07 09:17:14;;;;;;;9.73;6.20;;;6.00;99.90;;;3.87;100.00;99966.03;10591512;27;20480;-78
2022/12/07 09:22:17;;;;;;;12.30;6.60;;;6.10;99.90;;;3.88;100.00;99958.03;10620173;27;20066;-78
2022/12/07 09:27:19;;;;;;;11.97;6.93;;;6.10;99.90;;;3.90;100.00;99950.84;10622964;27;20059;-78
2022/12/07 09:32:23;;;;;;;11.70;6.63;;;6.10;99.90;;;4.02;100.00;99954.22;10631240;27;20055;-78
2022/12/07 09:37:26;;;;;;;9.90;5.80;;;6.20;99.90;;;4.08;100.00;99952.84;10596651;27;20109;-78
2022/12/07 09:42:45;;;;;;;10.20;6.07;;;6.30;99.90;;;4.07;100.00;99936.25;10589335;27;20050;-78
2022/12/07 09:47:48;;;;;;;8.93;5.23;;;6.30;99.90;;;4.16;100.00;99934.63;10572836;27;20499;-78
2022/12/07 09:52:52;;;;;;;11.90;6.83;;;6.40;99.90;;;4.19;100.00;99942.22;10599990;27;20060;-78
2022/12/07 09:57:57;;;;;;;10.20;6.40;;;6.40;99.90;;;4.18;100.00;99930.06;10570429;27;20055;-79
2022/12/07 10:03:02;;;;;;;8.53;5.07;;;6.40;99.90;;;4.13;100.00;99912.03;10597231;27;20052;-78
2022/12/07 10:08:11;;;;;;;11.53;5.77;;;6.40;99.90;;;4.10;99.93;99914.13;10625475;27;20508;-78
2022/12/07 10:13:21;;;;;;;14.10;7.67;;;6.30;99.90;;;4.18;99.78;99916.91;10578909;27;20087;-78
2022/12/07 10:18:41;;;;;;;14.70;7.47;;;6.40;99.90;;;4.35;98.69;99921.53;10593942;27;20063;-78
2022/12/07 10:24:22;;;;;;;10.97;6.17;;;6.50;99.90;;;4.44;95.98;99910.19;10595812;27;20056;-78
2022/12/07 10:29:36;;;;;;;12.77;7.40;;;6.60;99.90;;;4.45;95.73;99903.97;10589750;27;20062;-78
2022/12/07 10:34:39;;;;;;;12.87;7.43;;;6.60;99.90;;;4.53;95.77;99884.88;10629911;27;20062;-78
2022/12/07 10:39:56;;;;;;;15.07;9.27;;;6.70;99.90;;;4.68;95.97;99869.47;10629657;27;20062;-78
2022/12/07 10:45:14;;;;;;;5.83;4.20;;;6.80;99.90;;;5.28;95.31;99885.97;10594802;27;20055;-80
2022/12/07 10:51:00;;;;;;;9.07;4.33;;;7.60;99.90;;;5.66;90.21;99884.19;10620065;27;20100;-79
2022/12/07 10:56:27;;;;;;;9.53;5.53;;;7.90;99.90;;;5.78;88.50;99883.03;10608145;27;20064;-79
2022/12/07 11:01:46;;;;;;;7.43;4.43;;;8.00;99.90;;;5.72;87.56;99873.06;10611378;27;20592;-79
2022/12/07 11:07:10;;;;;;;10.80;6.13;;;8.00;99.90;;;5.58;87.39;99875.22;10623010;27;20142;-78
2022/12/07 11:12:21;;;;;;;5.97;3.17;;;7.90;99.90;;;5.42;85.00;99874.97;10610527;27;20060;-78
2022/12/07 11:17:35;;;;;;;6.10;3.23;;;7.70;99.90;;;5.25;83.58;99886.22;10607770;27;20142;-78
2022/12/07 11:22:51;;;;;;;6.13;3.57;;;7.50;99.90;;;5.10;82.61;99883.22;10611825;27;20063;-78
2022/12/07 11:28:29;;;;;;;6.80;4.10;;;7.40;99.90;;;5.04;82.66;99884.59;10644535;27;20522;-78
2022/12/07 11:34:16;;;;;;;9.50;4.87;;;7.30;99.90;;;4.93;83.76;99876.84;10589351;27;20063;-78
2022/12/07 11:39:37;;;;;;;7.70;4.30;;;7.20;99.90;;;4.89;83.61;99888.63;10552227;27;20052;-78
2022/12/07 11:45:28;;;;;;;9.13;5.20;;;7.10;99.90;;;4.89;84.66;99886.00;10564261;28;20052;-78
2022/12/07 11:50:38;;;;;;;10.60;6.03;;;7.10;99.90;;;4.80;85.17;99882.41;10569767;27;20507;-78
2022/12/07 11:56:12;;;;;;;10.67;6.47;;;7.10;99.90;;;4.62;85.68;99870.91;10590389;27;20067;-78
2022/12/07 12:01:23;;;;;;;17.20;9.20;;;6.90;99.90;;;4.47;86.88;99859.09;10559792;27;20056;-78
2022/12/07 12:06:26;;;;;;;11.57;6.47;;;6.80;99.90;;;4.40;87.30;99858.81;10644193;27;20082;-78
2022/12/07 12:11:53;;;;;;;13.23;7.40;;;6.70;99.90;;;4.39;87.66;99849.25;10645582;27;20473;-78
2022/12/07 12:17:43;;;;;;;9.83;6.13;;;6.70;99.90;;;4.43;88.50;99840.09;10629621;27;20144;-78
2022/12/07 12:23:01;;;;;;;11.50;6.80;;;6.70;99.90;;;4.53;89.26;99835.69;10642146;27;20067;-78
2022/12/07 12:28:06;;;;;;;7.97;4.83;;;6.80;99.90;;;4.62;88.76;99831.41;10579380;27;20060;-81
2022/12/07 12:33:30;;;;;;;10.00;4.70;;;6.90;99.90;;;4.70;87.81;99828.09;10595439;27;20064;-82
2022/12/07 12:38:47;;;;;;;9.83;5.57;;;7.00;99.90;;;4.83;85.69;99823.34;10610956;27;20056;-78
2022/12/07 12:43:52;;;;;;;12.80;6.73;;;7.10;99.90;;;4.84;84.87;99830.28;10584655;27;20051;-77
2022/12/07 12:49:17;;;;;;;10.37;6.13;;;7.20;99.90;;;4.82;84.72;99826.97;10622330;27;20089;-76
2022/12/07 12:54:34;;;;;;;7.13;4.37;;;7.10;99.90;;;4.91;84.83;99833.19;10613883;27;20059;-77
2022/12/07 12:59:52;;;;;;;10.00;5.10;;;7.20;99.90;;;5.05;84.47;99828.31;10642653;27;20063;-80
2022/12/07 13:04:57;;;;;;;9.33;5.13;;;7.40;99.90;;;5.11;84.34;99829.56;10593395;27;20138;-77
2022/12/07 13:10:01;;;;;;;7.60;5.07;;;7.40;99.90;;;5.14;84.96;99837.16;10611941;27;20063;-77
2022/12/07 13:15:44;;;;;;;10.17;5.80;;;7.50;99.90;;;5.15;84.86;99838.00;10624206;27;20139;-77
2022/12/07 13:20:53;;;;;;;10.98;5.78;;;7.50;99.90;;;5.08;84.73;99848.25;10631755;27;20139;-77
2022/12/07 13:26:17;;;;;;;7.37;3.50;;;7.40;99.90;;;4.91;80.20;99847.16;10615292;27;20056;-77
2022/12/07 13:31:33;;;;;;;5.50;3.40;;;7.30;99.90;;;4.71;78.18;99850.78;10588119;27;20511;-77
2022/12/07 13:36:44;;;;;;;5.10;2.97;;;7.00;99.90;;;4.57;77.31;99841.53;10617341;27;20176;-76
2022/12/07 13:42:06;;;;;;;3.88;2.50;;;6.80;99.90;;;4.43;77.92;99863.78;10610197;27;20074;-77
2022/12/07 13:47:43;;;;;;;6.27;3.60;;;6.70;99.90;;;4.24;78.94;99866.41;10611885;27;20091;-77
2022/12/07 13:52:46;;;;;;;6.47;3.90;;;6.60;99.90;;;4.12;79.44;99873.56;10611301;27;20066;-76
2022/12/07 13:57:53;;;;;;;9.23;5.10;;;6.40;99.90;;;4.03;80.22;99877.84;10609791;27;20545;-77
2022/12/07 14:03:00;;;;;;;8.37;5.27;;;6.40;99.90;;;3.98;80.54;99869.53;10627204;27;20056;-77
2022/12/07 14:08:22;;;;;;;8.73;4.97;;;6.30;99.90;;;3.82;81.60;99869.19;10647293;27;20079;-77
2022/12/07 14:13:40;;;;;;;10.00;5.77;;;6.20;99.90;;;3.66;82.68;99874.09;10578935;27;20423;-77
2022/12/07 14:18:43;;;;;;;7.87;4.50;;;6.10;99.90;;;3.49;83.49;99873.75;10575859;27;20132;-77
2022/12/07 14:24:22;;;;;;;9.47;5.30;;;5.90;99.90;;;3.33;84.43;99878.63;10621456;27;20403;-77
2022/12/07 14:29:25;;;;;;;10.30;4.87;;;5.80;99.90;;;3.17;85.21;99878.25;10578038;27;20052;-77
2022/12/07 14:34:28;;;;;;;9.23;5.00;;;5.60;99.90;;;3.05;85.75;99874.00;10591018;27;20067;-77
2022/12/07 14:39:31;;;;;;;7.10;4.43;;;5.50;99.90;;;2.96;85.87;99867.75;10614073;27;20087;-76
2022/12/07 14:44:33;;;;;;;9.10;5.20;;;5.30;99.90;;;2.81;86.16;99880.31;10606743;27;20063;-77
2022/12/07 14:49:41;;;;;;;8.47;4.67;;;5.20;99.90;;;2.69;85.82;99870.84;10613342;27;20060;-77
2022/12/07 14:54:44;;;;;;;10.50;4.60;;;5.10;99.90;;;2.57;86.00;99884.94;10590133;27;20064;-77
2022/12/07 14:59:46;;;;;;;10.57;5.37;;;5.00;99.90;;;2.44;86.36;99897.41;10585360;28;20056;-77
2022/12/07 15:04:50;;;;;;;10.40;5.10;;;4.80;99.90;;;2.36;87.18;99898.84;10582314;28;20127;-77
2022/12/07 15:09:53;;;;;;;10.87;5.60;;;4.70;99.90;;;2.26;87.79;99895.28;10567219;28;20067;-77
2022/12/07 15:14:56;;;;;;;13.30;5.73;;;4.60;99.90;;;2.17;88.11;99903.91;10603498;27;20064;-77
2022/12/07 15:20:03;;;;;;;14.27;6.73;;;4.60;99.90;;;2.07;88.75;99903.78;10581896;27;20067;-77
2022/12/07 15:25:08;;;;;;;15.03;7.60;;;4.50;99.90;;;1.92;88.67;99912.84;10565117;28;20052;-77
2022/12/07 15:30:11;;;;;;;19.37;9.57;;;4.40;99.90;;;1.72;89.23;99909.16;10564565;28;20060;-77
2022/12/07 15:35:15;;;;;;;16.20;8.37;;;4.20;99.90;;;1.53;90.04;99919.38;10556476;28;20068;-77
2022/12/07 15:40:18;;;;;;;16.90;8.70;;;4.00;99.90;;;1.32;90.63;99921.84;10619362;27;20146;-77
2022/12/07 15:45:21;;;;;;;21.10;10.27;;;3.80;99.90;;;1.13;90.83;99926.75;10606927;27;20059;-79
2022/12/07 15:50:24;;;;;;;22.73;11.13;;;3.70;99.90;;;0.92;91.33;99919.56;10583859;28;20109;-77
2022/12/07 15:55:27;;;;;;;17.37;8.60;;;3.50;99.90;;;0.75;92.35;99933.06;10566558;28;20109;-78
2022/12/07 16:00:29;;;;;;;38.60;15.23;;;3.30;99.90;;;0.57;92.62;99924.75;10594296;27;20081;-76
2022/12/07 16:05:33;;;;;;;46.07;15.57;;;3.10;99.90;;;0.42;93.41;99925.84;10560194;28;20064;-76
2022/12/07 16:10:36;;;;;;;40.70;15.87;;;3.00;99.90;;;0.25;93.55;99935.75;10542578;28;20384;-76
2022/12/07 16:15:42;;;;;;;35.63;15.07;;;2.80;99.90;;;0.08;94.21;99930.88;10576019;27;20110;-76
2022/12/07 16:20:49;;;;;;;39.00;16.10;;;2.70;99.90;;;-0.05;94.94;99932.69;10546588;27;20516;-76
2022/12/07 16:25:52;;;;;;;28.13;12.43;;;2.50;99.90;;;-0.15;95.38;99936.84;10541995;28;20497;-76
2022/12/07 16:31:11;;;;;;;26.17;11.30;;;2.40;99.90;;;-0.24;96.31;99932.25;10553649;28;20063;-76
2022/12/07 16:36:17;;;;;;;26.27;11.80;;;2.40;99.90;;;-0.31;96.48;99939.69;10569786;27;20062;-76
2022/12/07 16:41:39;;;;;;;34.70;15.37;;;2.30;99.90;;;-0.45;96.82;99939.78;10540432;27;20114;-76
2022/12/07 16:46:43;;;;;;;29.67;14.10;;;2.20;99.90;;;-0.52;97.58;99939.38;10561565;27;20064;-76
2022/12/07 16:51:50;;;;;;;41.30;18.53;;;2.10;99.90;;;-0.53;97.84;99942.09;10572943;27;20560;-76
2022/12/07 16:57:13;;;;;;;66.57;27.30;;;2.00;99.90;;;-0.59;98.42;99948.56;10574258;27;20542;-78
2022/12/07 17:02:23;;;;;;;94.27;36.07;;;2.00;99.90;;;-0.68;98.20;99955.22;10599898;27;20426;-77
2022/12/07 17:07:26;;;;;;;94.30;33.80;;;1.90;99.90;;;-0.75;98.66;99958.34;10625545;27;20063;-77
2022/12/07 17:12:29;;;;;;;85.27;30.53;;;1.80;99.90;;;-0.85;99.25;99956.31;10579276;27;20059;-84
2022/12/07 17:17:32;;;;;;;110.43;38.40;;;1.70;99.90;;;-0.88;99.65;99953.09;10590948;27;20514;-78
2022/12/07 17:22:35;;;;;;;76.13;28.27;;;1.70;99.90;;;-0.91;100.00;99945.47;10618283;27;20066;-78
2022/12/07 17:27:38;;;;;;;48.43;19.83;;;1.60;99.90;;;-0.94;100.00;99943.91;10595475;27;20083;-78
2022/12/07 17:32:41;;;;;;;36.67;18.00;;;1.60;99.90;;;-1.00;100.00;99954.75;10613717;27;20059;-78
2022/12/07 17:37:45;;;;;;;50.07;19.33;;;1.60;99.90;;;-1.03;100.00;99967.97;10615272;27;20055;-78
2022/12/07 17:42:52;;;;;;;30.70;13.37;;;1.60;99.90;;;-0.97;100.00;99964.13;10585185;28;20074;-77
2022/12/07 17:47:55;;;;;;;27.83;12.27;;;1.50;99.90;;;-0.86;100.00;99972.91;10608546;27;20090;-78
2022/12/07 17:53:10;;;;;;;27.53;12.10;;;1.60;99.90;;;-0.82;100.00;99971.78;10613417;27;20612;-76
2022/12/07 17:58:13;;;;;;;44.87;19.97;;;1.60;99.90;;;-0.91;100.00;99975.00;10613869;27;20454;-77
2022/12/07 18:03:20;;;;;;;50.60;21.60;;;1.60;99.90;;;-1.03;100.00;99974.97;10608140;27;20055;-77
2022/12/07 18:08:23;;;;;;;38.47;15.23;;;1.50;99.90;;;-1.11;100.00;99968.47;10590546;27;20051;-77
2022/12/07 18:13:35;;;;;;;36.17;15.30;;;1.40;99.90;;;-1.12;100.00;99981.63;10617129;27;20062;-77
2022/12/07 18:18:40;;;;;;;31.55;15.75;;;1.40;99.90;;;-1.15;100.00;99982.63;10602780;27;20057;-77
2022/12/07 18:23:44;;;;;;;44.90;19.17;;;1.30;99.90;;;-1.22;100.00;99976.16;10592838;27;20066;-77
2022/12/07 18:28:48;;;;;;;33.67;15.90;;;1.30;99.90;;;-1.26;100.00;99979.91;10594059;27;20507;-77
2022/12/07 18:33:54;;;;;;;41.33;18.57;;;1.30;99.90;;;-1.22;100.00;99986.56;10578292;27;20060;-77
2022/12/07 18:38:57;;;;;;;50.43;23.97;;;1.20;99.90;;;-1.25;100.00;99985.97;10578327;27;20096;-77
2022/12/07 18:44:04;;;;;;;70.13;27.50;;;1.20;99.90;;;-1.36;100.00;99984.03;10569483;27;20083;-77
2022/12/07 18:49:11;;;;;;;107.40;39.47;;;1.20;99.90;;;-1.45;100.00;99984.59;10578176;27;20508;-77
2022/12/07 18:54:14;;;;;;;89.60;34.73;;;1.10;99.90;;;-1.52;100.00;99989.34;10616940;27;20064;-77
2022/12/07 19:04:38;;;;;;;82.57;31.10;;;0.90;99.90;;;-1.69;100.00;100003.44;10571913;27;20066;-78
2022/12/07 19:09:41;;;;;;;85.33;29.73;;;0.80;99.90;;;-1.82;100.00;99996.47;10608155;27;20091;-78
2022/12/07 19:14:44;;;;;;;77.00;32.33;;;0.70;99.90;;;-1.88;100.00;100011.53;10600708;27;20844;-78
2022/12/07 19:19:47;;;;;;;82.43;34.10;;;0.60;99.90;;;-1.84;100.00;100011.38;10582927;27;20529;-78
2022/12/07 19:24:53;;;;;;;72.33;29.50;;;0.60;99.90;;;-1.83;100.00;100013.03;10603926;27;20063;-77
2022/12/07 19:29:58;;;;;;;81.43;30.40;;;0.60;99.90;;;-1.83;100.00;100013.03;10584812;27;20055;-78
2022/12/07 19:35:01;;;;;;;74.17;29.10;;;0.50;99.90;;;-1.82;100.00;100001.69;10626340;27;20507;-78
2022/12/07 19:40:06;;;;;;;56.13;22.13;;;0.50;99.90;;;-1.82;100.00;99993.88;10592683;27;20055;-77
2022/12/07 19:45:09;;;;;;;65.10;25.03;;;0.50;99.90;;;-1.82;100.00;100004.28;10591051;27;20056;-78
2022/12/07 19:50:12;;;;;;;70.53;28.10;;;0.50;99.90;;;-1.82;100.00;99996.47;10592223;27;20060;-77
2022/12/07 19:55:16;;;;;;;83.00;32.83;;;0.50;99.90;;;-1.82;100.00;99997.31;10578445;27;20051;-77
2022/12/07 20:00:19;;;;;;;61.47;25.47;;;0.50;99.90;;;-1.81;100.00;100003.34;10565352;27;20059;-78
2022/12/07 20:05:23;;;;;;;87.43;33.83;;;0.50;99.90;;;-1.79;100.00;100001.50;10602481;27;20071;-78
2022/12/07 20:10:26;;;;;;;94.80;35.57;;;0.50;99.90;;;-1.80;100.00;100010.22;10613054;27;20503;-78
2022/12/07 20:15:29;;;;;;;95.60;34.17;;;0.50;99.90;;;-1.82;100.00;100006.88;10563636;27;20113;-78
2022/12/07 20:20:32;;;;;;;96.10;35.97;;;0.50;99.90;;;-1.89;100.00;100007.25;10599157;27;20091;-78
2022/12/07 20:25:36;;;;;;;102.10;35.67;;;0.40;99.90;;;-1.91;100.00;100014.34;10574617;27;20139;-78
2022/12/07 20:30:50;;;;;;;106.30;38.27;;;0.40;99.90;;;-1.94;100.00;100008.47;10576504;27;20080;-78
2022/12/07 20:36:03;;;;;;;66.87;27.60;;;0.40;99.90;;;-1.90;100.00;100020.38;10597934;27;20060;-78
2022/12/07 20:46:31;;;;;;;78.80;32.57;;;0.40;99.90;;;-1.94;100.00;100024.09;10567388;27;20086;-77
2022/12/07 20:51:34;;;;;;;68.43;27.40;;;0.40;99.90;;;-1.96;100.00;100032.00;10568732;27;20060;-78
2022/12/07 20:56:36;;;;;;;66.13;26.47;;;0.30;99.90;;;-1.95;100.00;100038.88;10565757;27;20546;-79
2022/12/07 21:01:40;;;;;;;38.90;17.60;;;0.30;99.90;;;-1.96;100.00;100031.19;10592526;27;20419;-78
2022/12/07 21:06:43;;;;;;;29.17;13.07;;;0.30;99.90;;;-1.99;100.00;100036.56;10589654;27;20069;-77
2022/12/07 21:11:46;;;;;;;33.30;13.80;;;0.30;99.90;;;-2.02;100.00;100040.19;10581717;27;20055;-78
2022/12/07 21:16:49;;;;;;;25.43;9.63;;;0.20;99.90;;;-2.07;100.00;100044.84;10605726;27;20059;-77
2022/12/07 21:21:52;;;;;;;60.70;24.23;;;0.20;99.90;;;-2.01;100.00;100044.47;10584761;27;20056;-78
2022/12/07 21:26:55;;;;;;;63.13;24.47;;;0.30;99.90;;;-1.98;100.00;100049.50;10581202;27;20071;-78
2022/12/07 21:31:58;;;;;;;48.70;21.47;;;0.30;99.90;;;-2.01;100.00;100041.88;10615562;27;20670;-78
2022/12/07 21:37:01;;;;;;;59.17;22.80;;;0.30;99.90;;;-2.06;100.00;100037.84;10595413;27;20066;-78